createdAt,value
2023-03-27T00:02:03.669Z,99945.19
2023-03-27T00:04:30.133Z,99944.31
2023-03-27T00:06:56.993Z,99948.06
2023-03-27T00:09:23.399Z,99944.97
2023-03-27T00:11:49.819Z,99956.91
2023-03-27T00:14:16.331Z,99965.28
2023-03-27T00:16:42.844Z,99958.44
2023-03-27T00:19:09.720Z,99979.78
2023-03-27T00:21:36.219Z,99976.63
2023-03-27T00:24:02.682Z,99982.38
2023-03-27T00:26:30.584Z,99981.81
2023-03-27T00:28:57.153Z,99996.50
2023-03-27T00:31:23.765Z,99996.09
2023-03-27T00:33:51.310Z,99999.28
2023-03-27T00:36:17.778Z,100007.38
2023-03-27T00:38:45.689Z,100016.63
2023-03-27T00:41:12.682Z,100018.00
2023-03-27T00:43:43.765Z,100022.41
2023-03-27T00:46:44.704Z,100022.16
2023-03-27T00:49:13.563Z,100035.88
2023-03-27T00:51:42.458Z,100030.56
2023-03-27T00:54:10.786Z,100037.91
2023-03-27T00:56:38.584Z,100035.44
2023-03-27T00:59:12.415Z,100041.47
2023-03-27T01:01:40.144Z,100043.84
2023-03-27T01:04:09.064Z,100039.38
2023-03-27T01:06:38.455Z,100048.13
2023-03-27T01:09:05.481Z,100049.22
2023-03-27T01:11:56.771Z,100065.13
2023-03-27T01:14:37.572Z,100063.66
2023-03-27T01:17:22.087Z,100066.97
2023-03-27T01:20:07.215Z,100072.28
2023-03-27T01:23:08.320Z,100076.81
2023-03-27T01:25:40.550Z,100088.84
2023-03-27T01:28:28.978Z,100084.00
2023-03-27T01:31:14.154Z,100100.56
2023-03-27T01:34:08.274Z,100104.28
2023-03-27T01:37:09.933Z,100110.03
2023-03-27T01:40:00.062Z,100105.09
2023-03-27T01:42:32.661Z,100111.16
2023-03-27T01:45:23.011Z,100115.00
2023-03-27T01:48:12.619Z,100108.66
2023-03-27T01:50:46.384Z,100112.22
2023-03-27T01:53:22.742Z,100125.94
2023-03-27T01:55:58.304Z,100125.09
2023-03-27T01:58:30.605Z,100140.53
2023-03-27T02:01:01.394Z,100147.34
2023-03-27T02:03:33.865Z,100146.41
2023-03-27T02:06:07.601Z,100160.50
2023-03-27T02:08:46.856Z,100161.19
2023-03-27T02:11:13.893Z,100156.63
2023-03-27T02:14:09.694Z,100163.81
2023-03-27T02:16:42.621Z,100162.31
2023-03-27T02:19:20.289Z,100173.34
2023-03-27T02:21:49.600Z,100173.75
2023-03-27T02:24:19.597Z,100182.25
2023-03-27T02:26:54.405Z,100187.41
2023-03-27T02:29:23.863Z,100190.47
2023-03-27T02:32:14.022Z,100195.63
2023-03-27T02:34:58.945Z,100195.47
2023-03-27T02:37:34.678Z,100199.81
2023-03-27T02:40:12.044Z,100207.66
2023-03-27T02:43:12.283Z,100214.94
2023-03-27T02:45:38.654Z,100213.59
2023-03-27T02:48:13.623Z,100216.25
2023-03-27T02:51:01.118Z,100219.53
2023-03-27T02:53:30.497Z,100219.06
2023-03-27T02:55:59.967Z,100217.56
2023-03-27T02:58:34.510Z,100229.72
2023-03-27T03:01:04.591Z,100237.84
2023-03-27T03:03:38.878Z,100237.41
2023-03-27T03:06:06.957Z,100233.94
2023-03-27T03:08:38.183Z,100244.72
2023-03-27T03:11:07.997Z,100251.47
2023-03-27T03:13:34.488Z,100255.56
2023-03-27T03:16:01.135Z,100259.28
2023-03-27T03:18:27.554Z,100264.28
2023-03-27T03:20:55.079Z,100258.44
2023-03-27T03:23:23.093Z,100264.19
2023-03-27T03:25:56.574Z,100276.50
2023-03-27T03:28:25.960Z,100280.88
2023-03-27T03:30:53.796Z,100265.75
2023-03-27T03:33:21.120Z,100280.69
2023-03-27T03:35:49.450Z,100286.84
2023-03-27T03:38:25.948Z,100290.31
2023-03-27T03:40:57.278Z,100293.59
2023-03-27T03:43:26.504Z,100296.06
2023-03-27T03:45:54.079Z,100299.63
2023-03-27T03:48:22.080Z,100308.03
2023-03-27T03:50:52.074Z,100315.53
2023-03-27T03:53:20.649Z,100314.41
2023-03-27T03:55:50.531Z,100325.88
2023-03-27T03:58:17.127Z,100319.34
2023-03-27T04:00:43.593Z,100326.78
2023-03-27T04:03:10.413Z,100329.00
2023-03-27T04:05:37.536Z,100327.63
2023-03-27T04:08:08.801Z,100338.34
2023-03-27T04:10:39.169Z,100344.78
2023-03-27T04:13:06.485Z,100351.06
2023-03-27T04:15:33.299Z,100364.16
2023-03-27T04:18:00.937Z,100362.00
2023-03-27T04:20:27.541Z,100373.81
2023-03-27T04:22:54.878Z,100368.72
2023-03-27T04:25:23.705Z,100365.22
2023-03-27T04:27:53.729Z,100369.09
2023-03-27T04:30:24.644Z,100368.97
2023-03-27T04:32:52.587Z,100373.22
2023-03-27T04:35:20.214Z,100376.97
2023-03-27T04:37:47.934Z,100381.44
2023-03-27T04:40:17.922Z,100382.38
2023-03-27T04:42:45.069Z,100375.78
2023-03-27T04:45:14.572Z,100374.63
2023-03-27T04:47:41.128Z,100387.97
2023-03-27T04:50:09.264Z,100390.88
2023-03-27T04:52:35.877Z,100395.31
2023-03-27T04:55:03.118Z,100401.53
2023-03-27T04:57:31.956Z,100402.44
2023-03-27T04:59:59.552Z,100404.75
2023-03-27T05:02:26.911Z,100400.38
2023-03-27T05:04:58.276Z,100407.16
2023-03-27T05:07:26.484Z,100403.47
2023-03-27T05:09:53.290Z,100410.13
2023-03-27T05:12:21.329Z,100417.00
2023-03-27T05:14:48.587Z,100416.41
2023-03-27T05:17:16.701Z,100418.38
2023-03-27T05:19:43.558Z,100426.47
2023-03-27T05:22:10.223Z,100425.03
2023-03-27T05:24:36.637Z,100428.84
2023-03-27T05:27:03.451Z,100433.03
2023-03-27T05:29:30.179Z,100441.94
2023-03-27T05:32:13.496Z,100444.28
2023-03-27T05:34:39.909Z,100454.53
2023-03-27T05:37:06.331Z,100456.47
2023-03-27T05:39:32.821Z,100455.78
2023-03-27T05:41:59.244Z,100465.75
2023-03-27T05:44:26.576Z,100465.06
2023-03-27T05:46:53.034Z,100470.31
2023-03-27T05:49:20.182Z,100474.63
2023-03-27T05:51:46.602Z,100466.03
2023-03-27T05:54:13.874Z,100473.00
2023-03-27T05:56:40.518Z,100480.84
2023-03-27T05:59:06.990Z,100476.53
2023-03-27T06:01:35.932Z,100487.16
2023-03-27T06:04:04.305Z,100481.66
2023-03-27T06:06:32.809Z,100486.59
2023-03-27T06:08:59.418Z,100480.13
2023-03-27T06:11:26.093Z,100488.31
2023-03-27T06:13:52.618Z,100485.59
2023-03-27T06:16:22.093Z,100486.19
2023-03-27T06:18:49.081Z,100490.91
2023-03-27T06:21:16.072Z,100497.38
2023-03-27T06:23:42.685Z,100509.53
2023-03-27T06:26:09.376Z,100509.72
2023-03-27T06:28:35.856Z,100505.06
2023-03-27T06:31:02.390Z,100514.88
2023-03-27T06:33:29.714Z,100520.63
2023-03-27T06:36:00.547Z,100530.16
2023-03-27T06:38:31.136Z,100526.78
2023-03-27T06:40:59.563Z,100531.50
2023-03-27T06:43:26.291Z,100520.16
2023-03-27T06:45:53.063Z,100529.06
2023-03-27T06:48:22.414Z,100527.38
2023-03-27T06:50:51.622Z,100538.59
2023-03-27T06:53:27.434Z,100535.94
2023-03-27T06:55:56.240Z,100534.09
2023-03-27T06:58:23.407Z,100539.31
2023-03-27T07:00:50.464Z,100549.13
2023-03-27T07:03:18.462Z,100559.47
2023-03-27T07:05:54.312Z,100553.00
2023-03-27T07:08:24.820Z,100564.19
2023-03-27T07:13:24.617Z,100573.13
2023-03-27T07:17:02.533Z,100575.06
2023-03-27T07:19:28.974Z,100569.81
2023-03-27T07:21:55.400Z,100567.84
2023-03-27T07:24:21.952Z,100572.78
2023-03-27T07:26:48.349Z,100569.28
2023-03-27T07:29:14.753Z,100567.31
2023-03-27T07:31:55.576Z,100578.88
2023-03-27T07:34:23.349Z,100571.59
2023-03-27T07:36:50.416Z,100575.47
2023-03-27T07:39:17.063Z,100577.94
2023-03-27T07:41:56.001Z,100570.81
2023-03-27T07:44:22.420Z,100574.88
2023-03-27T07:46:52.043Z,100586.19
2023-03-27T07:49:19.112Z,100597.66
2023-03-27T07:51:46.355Z,100604.22
2023-03-27T07:54:13.380Z,100604.91
2023-03-27T07:56:40.818Z,100617.53
2023-03-27T07:59:07.453Z,100600.25
2023-03-27T08:01:34.203Z,100608.47
2023-03-27T08:04:00.746Z,100609.69
2023-03-27T08:06:27.507Z,100606.72
2023-03-27T08:08:53.899Z,100607.78
2023-03-27T08:11:30.219Z,100608.16
2023-03-27T08:13:58.496Z,100612.09
2023-03-27T08:16:28.880Z,100613.09
2023-03-27T08:18:55.835Z,100615.00
2023-03-27T08:21:23.224Z,100629.94
2023-03-27T08:23:50.213Z,100628.66
2023-03-27T08:26:16.699Z,100628.69
2023-03-27T08:28:43.096Z,100628.78
2023-03-27T08:31:15.618Z,100625.44
2023-03-27T08:33:42.661Z,100618.94
2023-03-27T08:36:11.494Z,100618.69
2023-03-27T08:38:39.337Z,100621.66
2023-03-27T08:41:07.646Z,100623.44
2023-03-27T08:43:39.190Z,100624.91
2023-03-27T08:46:08.037Z,100618.88
2023-03-27T08:48:43.912Z,100621.34
2023-03-27T08:51:17.999Z,100629.22
2023-03-27T08:54:04.225Z,100648.09
2023-03-27T08:56:30.701Z,100643.91
2023-03-27T08:58:57.368Z,100646.47
2023-03-27T09:01:38.408Z,100639.00
2023-03-27T09:04:21.775Z,100650.00
2023-03-27T09:06:56.520Z,100643.91
2023-03-27T09:09:38.755Z,100649.72
2023-03-27T09:12:34.235Z,100645.38
2023-03-27T09:15:14.225Z,100651.28
2023-03-27T09:18:03.667Z,100655.84
2023-03-27T09:21:10.366Z,100642.38
2023-03-27T09:23:44.697Z,100648.13
2023-03-27T09:26:22.430Z,100649.44
2023-03-27T09:28:56.247Z,100655.53
2023-03-27T09:31:26.407Z,100668.19
2023-03-27T09:33:54.129Z,100652.59
2023-03-27T09:36:21.769Z,100645.63
2023-03-27T09:38:53.901Z,100652.19
2023-03-27T09:41:38.954Z,100638.34
2023-03-27T09:44:53.213Z,100651.69
2023-03-27T09:47:36.358Z,100653.75
2023-03-27T09:50:18.646Z,100660.66
2023-03-27T09:52:45.103Z,100647.38
2023-03-27T09:55:26.240Z,100649.44
2023-03-27T09:58:01.197Z,100656.22
2023-03-27T10:00:33.954Z,100642.78
2023-03-27T10:03:06.005Z,100639.91
2023-03-27T10:05:32.764Z,100635.94
2023-03-27T10:07:59.738Z,100640.88
2023-03-27T10:10:31.824Z,100641.25
2023-03-27T10:13:00.740Z,100636.50
2023-03-27T10:15:38.845Z,100637.75
2023-03-27T10:18:23.388Z,100639.19
2023-03-27T10:20:56.626Z,100646.09
2023-03-27T10:23:41.232Z,100650.84
2023-03-27T10:26:12.256Z,100668.28
2023-03-27T10:28:40.754Z,100692.22
2023-03-27T10:31:24.669Z,100700.34
2023-03-27T10:33:51.450Z,100718.19
2023-03-27T10:36:18.757Z,100733.59
2023-03-27T10:39:00.822Z,100728.38
2023-03-27T10:41:29.301Z,100736.63
2023-03-27T10:43:56.901Z,100725.09
2023-03-27T10:46:26.932Z,100734.38
2023-03-27T10:49:08.636Z,100730.94
2023-03-27T10:51:46.865Z,100739.22
2023-03-27T10:54:19.341Z,100738.00
2023-03-27T10:56:57.030Z,100744.75
2023-03-27T10:59:41.832Z,100742.13
2023-03-27T11:02:41.867Z,100734.38
2023-03-27T11:05:14.005Z,100726.31
2023-03-27T11:07:53.125Z,100722.91
2023-03-27T11:10:36.710Z,100732.22
2023-03-27T11:13:14.601Z,100723.13
2023-03-27T11:15:50.874Z,100730.84
2023-03-27T11:18:52.824Z,100729.94
2023-03-27T11:21:26.638Z,100723.00
2023-03-27T11:23:57.448Z,100732.59
2023-03-27T11:26:29.686Z,100720.50
2023-03-27T11:29:04.088Z,100712.66
2023-03-27T11:31:34.335Z,100714.94
2023-03-27T11:34:07.706Z,100734.97
2023-03-27T11:36:45.005Z,100733.84
2023-03-27T11:39:48.303Z,100706.75
2023-03-27T11:42:26.436Z,100752.69
2023-03-27T11:44:53.366Z,100776.03
2023-03-27T11:47:41.325Z,100798.13
2023-03-27T11:50:31.041Z,100803.59
2023-03-27T11:53:16.282Z,100807.31
2023-03-27T11:56:26.778Z,100813.03
2023-03-27T11:59:14.335Z,100809.13
2023-03-27T12:01:58.610Z,100800.06
2023-03-27T12:04:28.225Z,100791.84
2023-03-27T12:07:06.860Z,100788.28
2023-03-27T12:09:41.551Z,100793.72
2023-03-27T12:12:42.125Z,100788.16
2023-03-27T12:15:33.906Z,100780.75
2023-03-27T12:18:18.928Z,100783.72
2023-03-27T12:20:58.994Z,100788.59
2023-03-27T12:23:43.401Z,100788.94
2023-03-27T12:26:31.682Z,100789.50
2023-03-27T12:29:23.758Z,100783.56
2023-03-27T12:31:53.671Z,100784.75
2023-03-27T12:34:50.175Z,100783.50
2023-03-27T12:37:19.829Z,100774.94
2023-03-27T12:39:53.973Z,100787.78
2023-03-27T12:42:49.379Z,100792.19
2023-03-27T12:45:26.953Z,100787.84
2023-03-27T12:48:11.576Z,100782.19
2023-03-27T12:50:44.175Z,100786.88
2023-03-27T12:53:26.062Z,100790.88
2023-03-27T12:56:12.255Z,100776.59
2023-03-27T12:58:40.025Z,100780.53
2023-03-27T13:01:10.839Z,100774.16
2023-03-27T13:04:08.245Z,100770.31
2023-03-27T13:06:37.345Z,100768.16
2023-03-27T13:09:16.697Z,100781.19
2023-03-27T13:11:54.542Z,100815.56
2023-03-27T13:14:21.461Z,100836.50
2023-03-27T13:17:14.800Z,100861.31
2023-03-27T13:20:07.980Z,100890.25
2023-03-27T13:22:52.469Z,100898.22
2023-03-27T13:25:21.864Z,100894.00
2023-03-27T13:31:48.975Z,100897.16
2023-03-27T13:34:27.987Z,100882.66
2023-03-27T13:37:06.224Z,100906.13
2023-03-27T13:39:45.902Z,100894.03
2023-03-27T13:42:19.554Z,100891.31
2023-03-27T13:44:54.798Z,100878.81
2023-03-27T13:47:45.723Z,100868.06
2023-03-27T13:50:24.054Z,100856.06
2023-03-27T13:53:15.449Z,100856.19
2023-03-27T13:56:11.453Z,100845.47
2023-03-27T13:59:12.050Z,100836.66
2023-03-27T14:01:47.772Z,100835.53
2023-03-27T14:04:53.201Z,100830.66
2023-03-27T14:07:38.389Z,100824.91
2023-03-27T14:10:13.810Z,100829.13
2023-03-27T14:12:59.231Z,100823.91
2023-03-27T14:15:43.985Z,100823.63
2023-03-27T14:18:47.972Z,100820.25
2023-03-27T14:21:35.573Z,100830.81
2023-03-27T14:24:25.548Z,100831.09
2023-03-27T14:26:53.724Z,100842.44
2023-03-27T14:29:21.234Z,100845.41
2023-03-27T14:31:49.190Z,100837.41
2023-03-27T14:34:24.679Z,100841.22
2023-03-27T14:36:52.239Z,100845.03
2023-03-27T14:39:22.138Z,100862.06
2023-03-27T14:41:51.928Z,100857.16
2023-03-27T14:44:19.678Z,100859.53
2023-03-27T14:46:48.247Z,100870.94
2023-03-27T14:49:19.370Z,100876.06
2023-03-27T14:51:48.412Z,100878.06
2023-03-27T14:54:26.637Z,100877.94
2023-03-27T14:56:57.051Z,100880.97
2023-03-27T14:59:26.647Z,100874.00
2023-03-27T15:01:56.741Z,100875.00
2023-03-27T15:04:24.826Z,100867.63
2023-03-27T15:06:55.840Z,100871.03
2023-03-27T15:09:23.407Z,100867.38
2023-03-27T15:11:55.260Z,100874.25
2023-03-27T15:14:27.954Z,100874.09
2023-03-27T15:17:02.883Z,100870.81
2023-03-27T15:19:45.465Z,100868.25
2023-03-27T15:22:27.626Z,100872.34
2023-03-27T15:24:57.507Z,100869.22
2023-03-27T15:27:38.161Z,100869.44
2023-03-27T15:30:08.876Z,100860.22
2023-03-27T15:32:42.863Z,100866.34
2023-03-27T15:35:16.506Z,100873.38
2023-03-27T15:37:43.652Z,100886.44
2023-03-27T15:40:13.199Z,100895.91
2023-03-27T15:42:49.118Z,100884.56
2023-03-27T15:45:18.845Z,100885.50
2023-03-27T15:47:59.766Z,100896.63
2023-03-27T15:50:28.007Z,100909.19
2023-03-27T15:52:58.807Z,100895.63
2023-03-27T15:55:37.356Z,100905.31
2023-03-27T15:58:27.277Z,100901.72
2023-03-27T16:00:59.736Z,100904.00
2023-03-27T16:03:27.521Z,100898.72
2023-03-27T16:05:57.023Z,100910.69
2023-03-27T16:08:28.616Z,100905.09
2023-03-27T16:10:55.741Z,100907.16
2023-03-27T16:13:28.346Z,100902.44
2023-03-27T16:16:01.575Z,100905.38
2023-03-27T16:18:35.211Z,100904.97
2023-03-27T16:21:13.388Z,100892.94
2023-03-27T16:23:40.803Z,100904.34
2023-03-27T16:26:12.995Z,100896.88
2023-03-27T16:28:40.587Z,100902.00
2023-03-27T16:31:15.923Z,100900.06
2023-03-27T16:33:43.254Z,100907.34
2023-03-27T16:36:12.230Z,100909.50
2023-03-27T16:38:40.760Z,100906.16
2023-03-27T16:41:13.894Z,100908.59
2023-03-27T16:43:40.847Z,100900.88
2023-03-27T16:46:15.899Z,100913.72
2023-03-27T16:48:42.431Z,100920.81
2023-03-27T16:51:08.819Z,100918.13
2023-03-27T16:53:36.321Z,100922.25
2023-03-27T16:56:02.722Z,100928.44
2023-03-27T16:58:29.144Z,100912.66
2023-03-27T17:00:55.692Z,100930.03
2023-03-27T17:03:22.152Z,100922.22
2023-03-27T17:05:48.654Z,100930.94
2023-03-27T17:08:16.792Z,100925.22
2023-03-27T17:10:43.707Z,100930.97
2023-03-27T17:13:10.189Z,100936.44
2023-03-27T17:15:37.906Z,100936.63
2023-03-27T17:18:05.984Z,100938.31
2023-03-27T17:20:32.575Z,100943.72
2023-03-27T17:22:58.990Z,100960.31
2023-03-27T17:25:25.427Z,100960.41
2023-03-27T17:27:51.854Z,100952.50
2023-03-27T17:30:30.530Z,100956.31
2023-03-27T17:33:05.061Z,100964.69
2023-03-27T17:35:31.985Z,100973.66
2023-03-27T17:37:58.481Z,100974.00
2023-03-27T17:40:24.902Z,100976.63
2023-03-27T17:42:51.332Z,100975.06
2023-03-27T17:45:17.868Z,100974.47
2023-03-27T17:47:44.305Z,100984.69
2023-03-27T17:50:10.847Z,100983.06
2023-03-27T17:52:37.277Z,100986.28
2023-03-27T17:55:03.930Z,100986.88
2023-03-27T17:57:30.888Z,100992.88
2023-03-27T17:59:57.519Z,100990.09
2023-03-27T18:02:23.997Z,100994.38
2023-03-27T18:04:52.310Z,100996.19
2023-03-27T18:07:20.277Z,100999.38
2023-03-27T18:09:46.765Z,100999.31
2023-03-27T18:12:14.022Z,101004.22
2023-03-27T18:14:41.553Z,100999.69
2023-03-27T18:17:07.987Z,101007.56
2023-03-27T18:19:34.658Z,101007.38
2023-03-27T18:22:01.750Z,101005.31
2023-03-27T18:24:28.423Z,101018.69
2023-03-27T18:26:55.404Z,101011.03
2023-03-27T18:29:24.092Z,101019.66
2023-03-27T18:31:50.736Z,101015.75
2023-03-27T18:34:17.264Z,101024.03
2023-03-27T18:36:50.522Z,101028.06
2023-03-27T18:39:20.894Z,101028.53
2023-03-27T18:41:47.412Z,101032.22
2023-03-27T18:44:13.961Z,101036.09
2023-03-27T18:46:40.729Z,101043.56
2023-03-27T18:49:17.528Z,101039.56
2023-03-27T18:51:50.441Z,101048.53
2023-03-27T18:54:16.868Z,101047.13
2023-03-27T18:56:43.385Z,101048.28
2023-03-27T18:59:11.022Z,101055.47
2023-03-27T19:01:37.659Z,101067.69
2023-03-27T19:04:04.788Z,101052.19
2023-03-27T19:06:36.136Z,101055.00
2023-03-27T19:09:02.682Z,101068.59
2023-03-27T19:11:29.113Z,101065.28
2023-03-27T19:13:56.065Z,101062.78
2023-03-27T19:16:22.611Z,101073.66
2023-03-27T19:18:49.073Z,101064.13
2023-03-27T19:21:15.679Z,101054.25
2023-03-27T19:23:42.168Z,101059.50
2023-03-27T19:26:10.997Z,101060.44
2023-03-27T19:28:37.433Z,101075.06
2023-03-27T19:31:05.928Z,101068.63
2023-03-27T19:33:32.448Z,101063.88
2023-03-27T19:35:58.995Z,101066.72
2023-03-27T19:38:25.479Z,101065.16
2023-03-27T19:40:51.935Z,101071.91
2023-03-27T19:43:18.800Z,101081.44
2023-03-27T19:46:08.030Z,101084.72
2023-03-27T19:48:41.244Z,101079.03
2023-03-27T19:51:07.695Z,101089.09
2023-03-27T19:53:34.119Z,101079.38
2023-03-27T19:56:00.910Z,101090.41
2023-03-27T19:58:29.008Z,101084.72
2023-03-27T20:00:55.657Z,101078.03
2023-03-27T20:03:24.203Z,101084.50
2023-03-27T20:05:52.247Z,101082.34
2023-03-27T20:08:20.514Z,101080.28
2023-03-27T20:14:27.328Z,101067.28
2023-03-27T20:17:00.265Z,101076.22
2023-03-27T20:19:50.070Z,101080.13
2023-03-27T20:22:20.837Z,101084.09
2023-03-27T20:24:48.150Z,101075.03
2023-03-27T20:27:15.563Z,101077.97
2023-03-27T20:29:45.982Z,101075.41
2023-03-27T20:32:13.845Z,101077.56
2023-03-27T20:34:49.097Z,101064.44
2023-03-27T20:37:18.752Z,101076.22
2023-03-27T20:39:46.869Z,101078.72
2023-03-27T20:42:15.454Z,101077.22
2023-03-27T20:44:46.738Z,101068.50
2023-03-27T20:47:14.986Z,101068.28
2023-03-27T20:49:45.130Z,101076.78
2023-03-27T20:52:25.464Z,101073.91
2023-03-27T20:54:51.880Z,101064.78
2023-03-27T20:57:18.383Z,101078.72
2023-03-27T20:59:47.464Z,101082.31
2023-03-27T21:02:17.250Z,101075.44
2023-03-27T21:04:43.868Z,101068.13
2023-03-27T21:07:10.297Z,101075.78
2023-03-27T21:09:38.168Z,101074.72
2023-03-27T21:12:04.884Z,101080.13
2023-03-27T21:14:43.577Z,101077.44
2023-03-27T21:17:09.973Z,101073.75
2023-03-27T21:19:36.414Z,101079.00
2023-03-27T21:22:02.844Z,101070.63
2023-03-27T21:24:29.390Z,101068.16
2023-03-27T21:26:55.869Z,101072.47
2023-03-27T21:29:22.383Z,101074.56
2023-03-27T21:31:48.852Z,101071.28
2023-03-27T21:34:15.491Z,101074.13
2023-03-27T21:36:41.998Z,101069.25
2023-03-27T21:39:09.045Z,101081.34
2023-03-27T21:41:35.910Z,101098.81
2023-03-27T21:44:02.687Z,101096.75
2023-03-27T21:46:29.128Z,101079.06
2023-03-27T21:48:55.593Z,101087.13
2023-03-27T21:51:22.015Z,101095.69
2023-03-27T21:53:48.479Z,101076.19
2023-03-27T21:56:14.921Z,101074.88
2023-03-27T21:58:41.385Z,101093.00
2023-03-27T22:01:08.221Z,101095.25
2023-03-27T22:03:34.871Z,101083.34
2023-03-27T22:06:11.851Z,101090.94
2023-03-27T22:08:39.957Z,101091.84
2023-03-27T22:11:07.071Z,101085.13
2023-03-27T22:13:37.849Z,101094.47
2023-03-27T22:16:13.451Z,101083.50
2023-03-27T22:18:41.232Z,101085.75
2023-03-27T22:21:14.926Z,101099.44
2023-03-27T22:23:41.422Z,101100.56
2023-03-27T22:26:08.373Z,101108.47
2023-03-27T22:28:34.793Z,101123.59
2023-03-27T22:31:01.414Z,101116.13
2023-03-27T22:33:27.900Z,101119.44
2023-03-27T22:35:54.412Z,101110.00
2023-03-27T22:38:20.939Z,101117.63
2023-03-27T22:40:47.401Z,101119.34
2023-03-27T22:43:22.569Z,101124.41
2023-03-27T22:45:50.818Z,101115.13
2023-03-27T22:48:17.467Z,101126.25
2023-03-27T22:50:44.351Z,101136.88
2023-03-27T22:53:10.911Z,101149.00
2023-03-27T22:55:37.715Z,101138.00
2023-03-27T22:58:04.101Z,101143.63
2023-03-27T23:00:30.613Z,101140.41
2023-03-27T23:02:57.156Z,101142.47
2023-03-27T23:05:23.613Z,101146.22
2023-03-27T23:07:50.045Z,101143.66
2023-03-27T23:10:28.341Z,101146.00
2023-03-27T23:12:54.816Z,101152.91
2023-03-27T23:15:30.397Z,101153.09
2023-03-27T23:17:57.341Z,101160.06
2023-03-27T23:20:23.864Z,101150.00
2023-03-27T23:22:50.364Z,101158.31
2023-03-27T23:25:16.881Z,101161.34
2023-03-27T23:27:43.292Z,101177.34
2023-03-27T23:30:10.401Z,101170.63
2023-03-27T23:32:39.394Z,101163.16
2023-03-27T23:35:08.357Z,101179.13
2023-03-27T23:37:35.492Z,101184.63
2023-03-27T23:40:02.587Z,101180.03
2023-03-27T23:42:29.044Z,101189.63
2023-03-27T23:44:55.543Z,101186.84
2023-03-27T23:47:22.155Z,101188.38
2023-03-27T23:49:48.902Z,101193.19
2023-03-27T23:52:15.342Z,101194.28
2023-03-27T23:54:41.837Z,101203.94
2023-03-27T23:57:08.367Z,101204.16
2023-03-27T23:59:37.952Z,101206.78
